sensor_id;sensor_type;location;lat;lon;timestamp;P1;durP1;ratioP1;P2;durP2;ratioP2
62258;SDS011;48241;48.824;10.102;2022-10-16T00:01:40;5.45;;;1.40;;
62258;SDS011;48241;48.824;10.102;2022-10-16T00:04:06;4.88;;;1.50;;
62258;SDS011;48241;48.824;10.102;2022-10-16T00:06:32;4.50;;;1.50;;
62258;SDS011;48241;48.824;10.102;2022-10-16T00:08:57;2.40;;;1.38;;
62258;SDS011;48241;48.824;10.102;2022-10-16T00:11:27;1.65;;;1.42;;
62258;SDS011;48241;48.824;10.102;2022-10-16T00:13:59;7.03;;;1.50;;
62258;SDS011;48241;48.824;10.102;2022-10-16T00:16:26;8.90;;;1.83;;
62258;SDS011;48241;48.824;10.102;2022-10-16T00:18:52;6.65;;;1.52;;
62258;SDS011;48241;48.824;10.102;2022-10-16T00:21:19;4.50;;;1.50;;
62258;SDS011;48241;48.824;10.102;2022-10-16T00:23:49;5.18;;;1.90;;
62258;SDS011;48241;48.824;10.102;2022-10-16T00:26:19;5.57;;;1.52;;
62258;SDS011;48241;48.824;10.102;2022-10-16T00:28:46;4.32;;;1.80;;
62258;SDS011;48241;48.824;10.102;2022-10-16T00:31:13;3.13;;;1.50;;
62258;SDS011;48241;48.824;10.102;2022-10-16T00:33:40;3.67;;;1.30;;
62258;SDS011;48241;48.824;10.102;2022-10-16T00:36:06;5.05;;;1.60;;
62258;SDS011;48241;48.824;10.102;2022-10-16T00:38:33;1.33;;;1.02;;
62258;SDS011;48241;48.824;10.102;2022-10-16T00:40:58;2.10;;;1.40;;
62258;SDS011;48241;48.824;10.102;2022-10-16T00:48:41;5.63;;;1.23;;
62258;SDS011;48241;48.824;10.102;2022-10-16T00:51:11;3.05;;;1.33;;
62258;SDS011;48241;48.824;10.102;2022-10-16T00:53:37;6.60;;;1.20;;
62258;SDS011;48241;48.824;10.102;2022-10-16T00:56:03;3.88;;;1.35;;
62258;SDS011;48241;48.824;10.102;2022-10-16T00:58:29;3.53;;;1.40;;
62258;SDS011;48241;48.824;10.102;2022-10-16T01:00:54;3.05;;;1.30;;
62258;SDS011;48241;48.824;10.102;2022-10-16T01:03:24;2.72;;;1.30;;
62258;SDS011;48241;48.824;10.102;2022-10-16T01:06:18;2.85;;;1.20;;
62258;SDS011;48241;48.824;10.102;2022-10-16T01:11:41;5.70;;;1.48;;
62258;SDS011;48241;48.824;10.102;2022-10-16T01:14:15;3.00;;;1.10;;
62258;SDS011;48241;48.824;10.102;2022-10-16T01:17:16;4.10;;;1.45;;
62258;SDS011;48241;48.824;10.102;2022-10-16T01:19:51;5.65;;;1.42;;
62258;SDS011;48241;48.824;10.102;2022-10-16T01:22:28;4.40;;;1.00;;
62258;SDS011;48241;48.824;10.102;2022-10-16T01:25:21;7.38;;;1.02;;
62258;SDS011;48241;48.824;10.102;2022-10-16T01:27:56;4.10;;;1.10;;
62258;SDS011;48241;48.824;10.102;2022-10-16T01:30:26;5.10;;;1.50;;
62258;SDS011;48241;48.824;10.102;2022-10-16T01:35:43;1.73;;;0.93;;
62258;SDS011;48241;48.824;10.102;2022-10-16T01:38:17;8.55;;;1.30;;
62258;SDS011;48241;48.824;10.102;2022-10-16T01:40:53;3.33;;;0.90;;
62258;SDS011;48241;48.824;10.102;2022-10-16T01:43:26;2.28;;;1.08;;
62258;SDS011;48241;48.824;10.102;2022-10-16T01:45:56;3.33;;;1.15;;
62258;SDS011;48241;48.824;10.102;2022-10-16T01:48:24;5.97;;;1.40;;
62258;SDS011;48241;48.824;10.102;2022-10-16T01:53:54;6.07;;;1.30;;
62258;SDS011;48241;48.824;10.102;2022-10-16T01:56:23;2.42;;;0.90;;
62258;SDS011;48241;48.824;10.102;2022-10-16T01:59:01;2.65;;;1.00;;
62258;SDS011;48241;48.824;10.102;2022-10-16T02:01:34;2.80;;;1.20;;
62258;SDS011;48241;48.824;10.102;2022-10-16T02:04:07;1.35;;;0.88;;
62258;SDS011;48241;48.824;10.102;2022-10-16T02:06:39;4.63;;;1.40;;
62258;SDS011;48241;48.824;10.102;2022-10-16T02:09:05;3.75;;;0.82;;
62258;SDS011;48241;48.824;10.102;2022-10-16T02:11:30;4.78;;;1.27;;
62258;SDS011;48241;48.824;10.102;2022-10-16T02:14:01;4.75;;;0.82;;
62258;SDS011;48241;48.824;10.102;2022-10-16T02:16:38;2.47;;;0.93;;
62258;SDS011;48241;48.824;10.102;2022-10-16T02:19:06;2.42;;;1.25;;
62258;SDS011;48241;48.824;10.102;2022-10-16T02:21:34;3.35;;;1.17;;
62258;SDS011;48241;48.824;10.102;2022-10-16T02:29:23;4.10;;;0.98;;
62258;SDS011;48241;48.824;10.102;2022-10-16T02:31:52;7.45;;;1.40;;
62258;SDS011;48241;48.824;10.102;2022-10-16T02:34:21;3.40;;;1.13;;
62258;SDS011;48241;48.824;10.102;2022-10-16T02:36:48;1.98;;;1.10;;
62258;SDS011;48241;48.824;10.102;2022-10-16T02:39:15;3.83;;;1.17;;
62258;SDS011;48241;48.824;10.102;2022-10-16T02:41:42;3.63;;;1.30;;
62258;SDS011;48241;48.824;10.102;2022-10-16T02:44:08;2.58;;;1.00;;
62258;SDS011;48241;48.824;10.102;2022-10-16T02:46:33;5.22;;;1.02;;
62258;SDS011;48241;48.824;10.102;2022-10-16T02:48:59;4.13;;;1.23;;
62258;SDS011;48241;48.824;10.102;2022-10-16T02:51:24;8.95;;;1.25;;
62258;SDS011;48241;48.824;10.102;2022-10-16T02:53:50;5.88;;;1.40;;
62258;SDS011;48241;48.824;10.102;2022-10-16T02:56:16;2.22;;;1.55;;
62258;SDS011;48241;48.824;10.102;2022-10-16T02:58:41;2.63;;;1.10;;
62258;SDS011;48241;48.824;10.102;2022-10-16T03:01:07;1.38;;;1.13;;
62258;SDS011;48241;48.824;10.102;2022-10-16T03:03:33;3.92;;;1.40;;
62258;SDS011;48241;48.824;10.102;2022-10-16T03:05:58;3.17;;;1.50;;
62258;SDS011;48241;48.824;10.102;2022-10-16T03:08:24;2.20;;;1.30;;
62258;SDS011;48241;48.824;10.102;2022-10-16T03:10:50;2.65;;;1.38;;
62258;SDS011;48241;48.824;10.102;2022-10-16T03:13:16;2.92;;;1.25;;
62258;SDS011;48241;48.824;10.102;2022-10-16T03:15:42;5.63;;;1.73;;
62258;SDS011;48241;48.824;10.102;2022-10-16T03:18:08;2.38;;;1.20;;
62258;SDS011;48241;48.824;10.102;2022-10-16T03:20:33;1.85;;;1.27;;
62258;SDS011;48241;48.824;10.102;2022-10-16T03:22:59;1.90;;;1.30;;
62258;SDS011;48241;48.824;10.102;2022-10-16T03:25:25;4.03;;;1.45;;
62258;SDS011;48241;48.824;10.102;2022-10-16T03:27:50;2.17;;;1.13;;
62258;SDS011;48241;48.824;10.102;2022-10-16T03:30:16;4.95;;;1.48;;
62258;SDS011;48241;48.824;10.102;2022-10-16T03:32:41;3.53;;;1.50;;
62258;SDS011;48241;48.824;10.102;2022-10-16T03:35:08;3.63;;;1.52;;
62258;SDS011;48241;48.824;10.102;2022-10-16T03:37:34;5.93;;;1.67;;
62258;SDS011;48241;48.824;10.102;2022-10-16T03:40:00;5.40;;;1.30;;
62258;SDS011;48241;48.824;10.102;2022-10-16T03:42:25;5.63;;;1.75;;
62258;SDS011;48241;48.824;10.102;2022-10-16T03:44:51;2.72;;;1.40;;
62258;SDS011;48241;48.824;10.102;2022-10-16T03:47:17;2.45;;;1.58;;
62258;SDS011;48241;48.824;10.102;2022-10-16T03:49:46;4.60;;;1.83;;
62258;SDS011;48241;48.824;10.102;2022-10-16T03:52:12;3.35;;;1.90;;
62258;SDS011;48241;48.824;10.102;2022-10-16T03:54:38;1.73;;;1.42;;
62258;SDS011;48241;48.824;10.102;2022-10-16T03:57:04;4.63;;;1.98;;
62258;SDS011;48241;48.824;10.102;2022-10-16T03:59:30;6.30;;;1.83;;
62258;SDS011;48241;48.824;10.102;2022-10-16T04:01:55;3.92;;;1.77;;
62258;SDS011;48241;48.824;10.102;2022-10-16T04:04:21;4.90;;;1.75;;
62258;SDS011;48241;48.824;10.102;2022-10-16T04:06:46;4.60;;;1.60;;
62258;SDS011;48241;48.824;10.102;2022-10-16T04:09:12;4.00;;;1.50;;
62258;SDS011;48241;48.824;10.102;2022-10-16T04:11:37;3.65;;;1.50;;
62258;SDS011;48241;48.824;10.102;2022-10-16T04:14:04;3.95;;;1.67;;
62258;SDS011;48241;48.824;10.102;2022-10-16T04:16:29;4.07;;;1.73;;
62258;SDS011;48241;48.824;10.102;2022-10-16T04:18:55;5.95;;;1.50;;
62258;SDS011;48241;48.824;10.102;2022-10-16T04:21:20;5.07;;;1.60;;
62258;SDS011;48241;48.824;10.102;2022-10-16T04:23:47;4.75;;;1.70;;
62258;SDS011;48241;48.824;10.102;2022-10-16T04:26:13;2.03;;;1.40;;
62258;SDS011;48241;48.824;10.102;2022-10-16T04:28:38;8.32;;;1.90;;
62258;SDS011;48241;48.824;10.102;2022-10-16T04:31:04;4.75;;;1.65;;
62258;SDS011;48241;48.824;10.102;2022-10-16T04:33:31;2.05;;;1.70;;
62258;SDS011;48241;48.824;10.102;2022-10-16T04:36:00;3.88;;;1.65;;
62258;SDS011;48241;48.824;10.102;2022-10-16T04:38:27;2.97;;;1.45;;
62258;SDS011;48241;48.824;10.102;2022-10-16T04:40:53;3.33;;;1.83;;
62258;SDS011;48241;48.824;10.102;2022-10-16T04:43:18;4.95;;;2.30;;
62258;SDS011;48241;48.824;10.102;2022-10-16T04:45:44;2.13;;;1.85;;
62258;SDS011;48241;48.824;10.102;2022-10-16T04:48:10;3.10;;;2.17;;
62258;SDS011;48241;48.824;10.102;2022-10-16T04:50:35;4.68;;;2.00;;
62258;SDS011;48241;48.824;10.102;2022-10-16T04:53:01;3.38;;;1.60;;
62258;SDS011;48241;48.824;10.102;2022-10-16T04:55:27;2.50;;;2.30;;
62258;SDS011;48241;48.824;10.102;2022-10-16T04:57:52;5.65;;;2.45;;
62258;SDS011;48241;48.824;10.102;2022-10-16T05:00:18;5.70;;;2.65;;
62258;SDS011;48241;48.824;10.102;2022-10-16T05:02:43;4.13;;;3.10;;
62258;SDS011;48241;48.824;10.102;2022-10-16T05:05:09;4.60;;;2.53;;
62258;SDS011;48241;48.824;10.102;2022-10-16T05:07:35;6.97;;;2.40;;
62258;SDS011;48241;48.824;10.102;2022-10-16T05:10:00;6.47;;;2.83;;
62258;SDS011;48241;48.824;10.102;2022-10-16T05:12:26;4.38;;;2.78;;
62258;SDS011;48241;48.824;10.102;2022-10-16T05:14:52;1.90;;;1.75;;
62258;SDS011;48241;48.824;10.102;2022-10-16T05:17:17;4.28;;;2.80;;
62258;SDS011;48241;48.824;10.102;2022-10-16T05:19:43;3.65;;;2.85;;
62258;SDS011;48241;48.824;10.102;2022-10-16T05:22:08;6.00;;;2.60;;
62258;SDS011;48241;48.824;10.102;2022-10-16T05:24:34;5.05;;;2.70;;
62258;SDS011;48241;48.824;10.102;2022-10-16T05:26:59;3.67;;;2.53;;
62258;SDS011;48241;48.824;10.102;2022-10-16T05:29:25;7.28;;;3.00;;
62258;SDS011;48241;48.824;10.102;2022-10-16T05:31:54;4.03;;;2.40;;
62258;SDS011;48241;48.824;10.102;2022-10-16T05:34:20;6.10;;;2.83;;
62258;SDS011;48241;48.824;10.102;2022-10-16T05:36:45;3.85;;;2.65;;
62258;SDS011;48241;48.824;10.102;2022-10-16T05:39:11;7.88;;;2.63;;
62258;SDS011;48241;48.824;10.102;2022-10-16T05:41:38;5.80;;;2.35;;
62258;SDS011;48241;48.824;10.102;2022-10-16T05:44:04;5.97;;;2.95;;
62258;SDS011;48241;48.824;10.102;2022-10-16T05:46:31;6.10;;;3.42;;
62258;SDS011;48241;48.824;10.102;2022-10-16T05:48:57;3.97;;;3.65;;
62258;SDS011;48241;48.824;10.102;2022-10-16T05:51:22;5.13;;;3.00;;
62258;SDS011;48241;48.824;10.102;2022-10-16T05:53:48;5.15;;;3.42;;
62258;SDS011;48241;48.824;10.102;2022-10-16T05:56:14;6.15;;;3.35;;
62258;SDS011;48241;48.824;10.102;2022-10-16T05:58:41;4.97;;;3.75;;
62258;SDS011;48241;48.824;10.102;2022-10-16T06:01:10;5.40;;;3.33;;
62258;SDS011;48241;48.824;10.102;2022-10-16T06:03:37;5.18;;;2.30;;
62258;SDS011;48241;48.824;10.102;2022-10-16T06:06:10;7.32;;;2.40;;
62258;SDS011;48241;48.824;10.102;2022-10-16T06:08:37;6.53;;;1.98;;
62258;SDS011;48241;48.824;10.102;2022-10-16T06:11:03;4.43;;;2.22;;
62258;SDS011;48241;48.824;10.102;2022-10-16T06:13:31;6.57;;;2.10;;
62258;SDS011;48241;48.824;10.102;2022-10-16T06:15:57;2.25;;;2.05;;
62258;SDS011;48241;48.824;10.102;2022-10-16T06:18:24;5.35;;;2.20;;
62258;SDS011;48241;48.824;10.102;2022-10-16T06:20:51;3.95;;;1.98;;
62258;SDS011;48241;48.824;10.102;2022-10-16T06:23:16;4.68;;;2.00;;
62258;SDS011;48241;48.824;10.102;2022-10-16T06:25:42;2.08;;;1.58;;
62258;SDS011;48241;48.824;10.102;2022-10-16T06:28:08;1.92;;;1.40;;
62258;SDS011;48241;48.824;10.102;2022-10-16T06:30:33;3.13;;;1.70;;
62258;SDS011;48241;48.824;10.102;2022-10-16T06:32:59;5.47;;;1.60;;
62258;SDS011;48241;48.824;10.102;2022-10-16T06:35:24;4.00;;;1.42;;
62258;SDS011;48241;48.824;10.102;2022-10-16T06:37:50;3.85;;;1.70;;
62258;SDS011;48241;48.824;10.102;2022-10-16T06:40:17;2.03;;;1.80;;
62258;SDS011;48241;48.824;10.102;2022-10-16T06:45:27;6.68;;;1.90;;
62258;SDS011;48241;48.824;10.102;2022-10-16T06:47:53;2.60;;;1.50;;
62258;SDS011;48241;48.824;10.102;2022-10-16T06:50:19;6.45;;;1.85;;
62258;SDS011;48241;48.824;10.102;2022-10-16T06:52:44;2.97;;;1.60;;
62258;SDS011;48241;48.824;10.102;2022-10-16T06:55:10;4.97;;;1.73;;
62258;SDS011;48241;48.824;10.102;2022-10-16T06:57:38;5.03;;;1.70;;
62258;SDS011;48241;48.824;10.102;2022-10-16T07:00:04;4.38;;;1.85;;
62258;SDS011;48241;48.824;10.102;2022-10-16T07:02:39;7.45;;;1.85;;
62258;SDS011;48241;48.824;10.102;2022-10-16T07:05:10;4.60;;;1.67;;
62258;SDS011;48241;48.824;10.102;2022-10-16T07:07:38;2.15;;;1.30;;
62258;SDS011;48241;48.824;10.102;2022-10-16T07:10:04;3.67;;;1.60;;
62258;SDS011;48241;48.824;10.102;2022-10-16T07:12:30;4.93;;;1.83;;
62258;SDS011;48241;48.824;10.102;2022-10-16T07:14:55;5.03;;;1.42;;
62258;SDS011;48241;48.824;10.102;2022-10-16T07:17:21;3.30;;;1.50;;
62258;SDS011;48241;48.824;10.102;2022-10-16T07:19:47;4.20;;;1.50;;
62258;SDS011;48241;48.824;10.102;2022-10-16T07:22:12;5.53;;;1.65;;
62258;SDS011;48241;48.824;10.102;2022-10-16T07:24:38;4.63;;;1.50;;
62258;SDS011;48241;48.824;10.102;2022-10-16T07:27:03;2.78;;;1.20;;
62258;SDS011;48241;48.824;10.102;2022-10-16T07:29:29;3.17;;;1.50;;
62258;SDS011;48241;48.824;10.102;2022-10-16T07:31:54;3.00;;;1.50;;
62258;SDS011;48241;48.824;10.102;2022-10-16T07:34:20;5.50;;;1.30;;
62258;SDS011;48241;48.824;10.102;2022-10-16T07:36:49;4.82;;;1.42;;
62258;SDS011;48241;48.824;10.102;2022-10-16T07:39:19;3.40;;;1.48;;
62258;SDS011;48241;48.824;10.102;2022-10-16T07:41:54;5.80;;;1.42;;
62258;SDS011;48241;48.824;10.102;2022-10-16T07:44:26;4.18;;;1.50;;
62258;SDS011;48241;48.824;10.102;2022-10-16T07:46:52;6.82;;;1.75;;
62258;SDS011;48241;48.824;10.102;2022-10-16T07:49:17;1.98;;;1.60;;
62258;SDS011;48241;48.824;10.102;2022-10-16T07:51:46;6.32;;;1.60;;
62258;SDS011;48241;48.824;10.102;2022-10-16T07:54:14;2.60;;;1.55;;
62258;SDS011;48241;48.824;10.102;2022-10-16T07:56:46;4.82;;;1.70;;
62258;SDS011;48241;48.824;10.102;2022-10-16T07:59:11;2.90;;;1.20;;
62258;SDS011;48241;48.824;10.102;2022-10-16T08:01:37;4.10;;;1.48;;
62258;SDS011;48241;48.824;10.102;2022-10-16T08:04:10;6.22;;;1.45;;
62258;SDS011;48241;48.824;10.102;2022-10-16T08:06:39;4.53;;;1.60;;
62258;SDS011;48241;48.824;10.102;2022-10-16T08:09:23;6.03;;;1.80;;
62258;SDS011;48241;48.824;10.102;2022-10-16T08:11:52;7.50;;;1.83;;
62258;SDS011;48241;48.824;10.102;2022-10-16T08:14:18;3.95;;;1.67;;
62258;SDS011;48241;48.824;10.102;2022-10-16T08:16:46;3.10;;;1.40;;
62258;SDS011;48241;48.824;10.102;2022-10-16T08:19:15;2.47;;;1.50;;
62258;SDS011;48241;48.824;10.102;2022-10-16T08:21:40;2.30;;;1.40;;
62258;SDS011;48241;48.824;10.102;2022-10-16T08:24:06;3.35;;;1.40;;
62258;SDS011;48241;48.824;10.102;2022-10-16T08:26:35;2.88;;;1.40;;
62258;SDS011;48241;48.824;10.102;2022-10-16T08:29:00;4.28;;;1.35;;
62258;SDS011;48241;48.824;10.102;2022-10-16T08:31:29;3.50;;;1.50;;
62258;SDS011;48241;48.824;10.102;2022-10-16T08:33:54;2.60;;;1.27;;
62258;SDS011;48241;48.824;10.102;2022-10-16T08:36:20;5.40;;;1.45;;
62258;SDS011;48241;48.824;10.102;2022-10-16T08:38:49;4.00;;;1.30;;
62258;SDS011;48241;48.824;10.102;2022-10-16T08:44:24;3.85;;;1.40;;
62258;SDS011;48241;48.824;10.102;2022-10-16T08:49:40;4.65;;;1.50;;
62258;SDS011;48241;48.824;10.102;2022-10-16T08:52:10;5.32;;;1.45;;
62258;SDS011;48241;48.824;10.102;2022-10-16T08:54:41;3.83;;;1.20;;
62258;SDS011;48241;48.824;10.102;2022-10-16T08:57:19;4.00;;;1.33;;
62258;SDS011;48241;48.824;10.102;2022-10-16T08:59:47;4.40;;;1.17;;
62258;SDS011;48241;48.824;10.102;2022-10-16T09:02:32;6.22;;;1.48;;
62258;SDS011;48241;48.824;10.102;2022-10-16T09:10:56;8.27;;;1.70;;
62258;SDS011;48241;48.824;10.102;2022-10-16T09:13:49;5.35;;;1.40;;
62258;SDS011;48241;48.824;10.102;2022-10-16T09:16:22;6.07;;;1.20;;
62258;SDS011;48241;48.824;10.102;2022-10-16T09:21:40;2.20;;;1.20;;
62258;SDS011;48241;48.824;10.102;2022-10-16T09:24:15;3.90;;;1.10;;
62258;SDS011;48241;48.824;10.102;2022-10-16T09:26:43;6.50;;;1.45;;
62258;SDS011;48241;48.824;10.102;2022-10-16T09:29:11;3.08;;;1.27;;
62258;SDS011;48241;48.824;10.102;2022-10-16T09:31:39;4.07;;;1.20;;
62258;SDS011;48241;48.824;10.102;2022-10-16T09:34:05;4.10;;;1.30;;
62258;SDS011;48241;48.824;10.102;2022-10-16T09:36:39;3.58;;;1.10;;
62258;SDS011;48241;48.824;10.102;2022-10-16T09:39:08;5.68;;;1.48;;
62258;SDS011;48241;48.824;10.102;2022-10-16T09:41:39;3.25;;;1.40;;
62258;SDS011;48241;48.824;10.102;2022-10-16T09:47:00;5.65;;;1.20;;
62258;SDS011;48241;48.824;10.102;2022-10-16T09:49:29;5.90;;;1.33;;
62258;SDS011;48241;48.824;10.102;2022-10-16T09:52:14;5.35;;;1.30;;
62258;SDS011;48241;48.824;10.102;2022-10-16T09:57:53;3.58;;;1.30;;
62258;SDS011;48241;48.824;10.102;2022-10-16T10:00:20;1.75;;;1.00;;
62258;SDS011;48241;48.824;10.102;2022-10-16T10:02:46;2.33;;;1.33;;
62258;SDS011;48241;48.824;10.102;2022-10-16T10:05:26;4.07;;;1.30;;
62258;SDS011;48241;48.824;10.102;2022-10-16T10:07:54;4.63;;;1.48;;
62258;SDS011;48241;48.824;10.102;2022-10-16T10:10:26;2.65;;;1.35;;
62258;SDS011;48241;48.824;10.102;2022-10-16T10:12:53;3.05;;;1.20;;
62258;SDS011;48241;48.824;10.102;2022-10-16T10:15:20;4.88;;;1.40;;
62258;SDS011;48241;48.824;10.102;2022-10-16T10:17:49;5.70;;;1.30;;
62258;SDS011;48241;48.824;10.102;2022-10-16T10:22:57;3.15;;;1.40;;
62258;SDS011;48241;48.824;10.102;2022-10-16T10:28:17;4.55;;;1.83;;
62258;SDS011;48241;48.824;10.102;2022-10-16T10:30:53;3.55;;;1.40;;
62258;SDS011;48241;48.824;10.102;2022-10-16T10:33:44;3.33;;;1.20;;
62258;SDS011;48241;48.824;10.102;2022-10-16T10:36:37;2.10;;;1.20;;
62258;SDS011;48241;48.824;10.102;2022-10-16T10:58:07;3.17;;;1.20;;
62258;SDS011;48241;48.824;10.102;2022-10-16T11:00:51;2.72;;;1.23;;
62258;SDS011;48241;48.824;10.102;2022-10-16T11:06:39;2.75;;;1.25;;
62258;SDS011;48241;48.824;10.102;2022-10-16T11:09:10;5.25;;;1.15;;
62258;SDS011;48241;48.824;10.102;2022-10-16T11:11:44;2.85;;;1.17;;
62258;SDS011;48241;48.824;10.102;2022-10-16T11:14:20;1.83;;;1.23;;
62258;SDS011;48241;48.824;10.102;2022-10-16T11:16:57;8.70;;;1.13;;
62258;SDS011;48241;48.824;10.102;2022-10-16T11:22:20;2.88;;;1.10;;
62258;SDS011;48241;48.824;10.102;2022-10-16T11:27:52;2.08;;;1.00;;
62258;SDS011;48241;48.824;10.102;2022-10-16T11:30:24;1.58;;;0.70;;
62258;SDS011;48241;48.824;10.102;2022-10-16T11:35:41;3.97;;;0.90;;
62258;SDS011;48241;48.824;10.102;2022-10-16T11:38:53;5.57;;;1.33;;
62258;SDS011;48241;48.824;10.102;2022-10-16T11:46:40;4.05;;;1.23;;
62258;SDS011;48241;48.824;10.102;2022-10-16T11:49:18;4.45;;;1.10;;
62258;SDS011;48241;48.824;10.102;2022-10-16T11:51:53;3.25;;;1.13;;
62258;SDS011;48241;48.824;10.102;2022-10-16T11:54:53;9.43;;;1.67;;
62258;SDS011;48241;48.824;10.102;2022-10-16T11:57:25;15.70;;;1.50;;
62258;SDS011;48241;48.824;10.102;2022-10-16T11:59:55;7.55;;;1.45;;
62258;SDS011;48241;48.824;10.102;2022-10-16T12:07:52;10.25;;;1.50;;
62258;SDS011;48241;48.824;10.102;2022-10-16T12:10:37;7.13;;;1.10;;
62258;SDS011;48241;48.824;10.102;2022-10-16T12:13:25;2.40;;;1.05;;
62258;SDS011;48241;48.824;10.102;2022-10-16T12:16:03;8.30;;;1.35;;
62258;SDS011;48241;48.824;10.102;2022-10-16T12:18:38;10.13;;;1.30;;
62258;SDS011;48241;48.824;10.102;2022-10-16T12:21:05;11.98;;;1.50;;
62258;SDS011;48241;48.824;10.102;2022-10-16T12:23:32;9.20;;;1.40;;
62258;SDS011;48241;48.824;10.102;2022-10-16T12:26:02;7.43;;;1.58;;
62258;SDS011;48241;48.824;10.102;2022-10-16T12:28:29;5.78;;;1.00;;
62258;SDS011;48241;48.824;10.102;2022-10-16T12:31:06;9.73;;;1.15;;
62258;SDS011;48241;48.824;10.102;2022-10-16T12:33:35;13.70;;;1.60;;
62258;SDS011;48241;48.824;10.102;2022-10-16T12:36:13;8.55;;;1.10;;
62258;SDS011;48241;48.824;10.102;2022-10-16T12:38:48;7.70;;;1.10;;
62258;SDS011;48241;48.824;10.102;2022-10-16T12:43:50;6.78;;;1.25;;
62258;SDS011;48241;48.824;10.102;2022-10-16T12:48:42;9.65;;;1.20;;
62258;SDS011;48241;48.824;10.102;2022-10-16T12:51:21;9.68;;;1.00;;
62258;SDS011;48241;48.824;10.102;2022-10-16T12:53:59;4.63;;;1.10;;
62258;SDS011;48241;48.824;10.102;2022-10-16T13:04:57;6.72;;;1.20;;
62258;SDS011;48241;48.824;10.102;2022-10-16T13:07:50;6.57;;;1.20;;
62258;SDS011;48241;48.824;10.102;2022-10-16T13:23:18;6.85;;;1.48;;
62258;SDS011;48241;48.824;10.102;2022-10-16T13:28:51;10.02;;;1.17;;
62258;SDS011;48241;48.824;10.102;2022-10-16T13:31:18;4.90;;;1.20;;
62258;SDS011;48241;48.824;10.102;2022-10-16T13:33:48;12.32;;;1.55;;
62258;SDS011;48241;48.824;10.102;2022-10-16T13:36:23;8.70;;;1.20;;
62258;SDS011;48241;48.824;10.102;2022-10-16T13:39:09;9.63;;;1.10;;
62258;SDS011;48241;48.824;10.102;2022-10-16T13:41:42;9.95;;;1.17;;
62258;SDS011;48241;48.824;10.102;2022-10-16T13:44:12;9.95;;;1.70;;
62258;SDS011;48241;48.824;10.102;2022-10-16T13:46:42;11.93;;;1.48;;
62258;SDS011;48241;48.824;10.102;2022-10-16T13:49:15;16.60;;;1.50;;
62258;SDS011;48241;48.824;10.102;2022-10-16T13:51:42;16.98;;;1.30;;
62258;SDS011;48241;48.824;10.102;2022-10-16T13:54:23;9.00;;;1.40;;
62258;SDS011;48241;48.824;10.102;2022-10-16T13:56:49;13.13;;;1.48;;
62258;SDS011;48241;48.824;10.102;2022-10-16T14:01:55;7.93;;;1.20;;
62258;SDS011;48241;48.824;10.102;2022-10-16T14:04:22;12.57;;;1.20;;
62258;SDS011;48241;48.824;10.102;2022-10-16T14:06:50;13.13;;;1.30;;
62258;SDS011;48241;48.824;10.102;2022-10-16T14:09:29;14.20;;;1.42;;
62258;SDS011;48241;48.824;10.102;2022-10-16T14:11:58;14.02;;;1.38;;
62258;SDS011;48241;48.824;10.102;2022-10-16T14:14:47;7.82;;;1.33;;
62258;SDS011;48241;48.824;10.102;2022-10-16T14:17:18;6.82;;;0.90;;
62258;SDS011;48241;48.824;10.102;2022-10-16T14:19:52;10.90;;;1.45;;
62258;SDS011;48241;48.824;10.102;2022-10-16T14:30:25;10.15;;;1.10;;
62258;SDS011;48241;48.824;10.102;2022-10-16T14:33:01;12.13;;;1.40;;
62258;SDS011;48241;48.824;10.102;2022-10-16T14:37:57;3.85;;;1.10;;
62258;SDS011;48241;48.824;10.102;2022-10-16T14:40:26;8.45;;;1.10;;
62258;SDS011;48241;48.824;10.102;2022-10-16T14:42:56;6.57;;;1.20;;
62258;SDS011;48241;48.824;10.102;2022-10-16T14:45:24;11.68;;;1.70;;
62258;SDS011;48241;48.824;10.102;2022-10-16T14:47:57;11.85;;;1.77;;
62258;SDS011;48241;48.824;10.102;2022-10-16T14:50:31;8.32;;;1.52;;
62258;SDS011;48241;48.824;10.102;2022-10-16T14:52:56;12.68;;;1.35;;
62258;SDS011;48241;48.824;10.102;2022-10-16T14:55:23;8.07;;;1.52;;
62258;SDS011;48241;48.824;10.102;2022-10-16T14:57:50;7.97;;;1.33;;
62258;SDS011;48241;48.824;10.102;2022-10-16T15:00:20;9.80;;;1.40;;
62258;SDS011;48241;48.824;10.102;2022-10-16T15:02:48;11.73;;;1.52;;
62258;SDS011;48241;48.824;10.102;2022-10-16T15:07:51;6.13;;;1.20;;
62258;SDS011;48241;48.824;10.102;2022-10-16T15:10:21;10.95;;;1.55;;
62258;SDS011;48241;48.824;10.102;2022-10-16T15:12:48;12.90;;;1.75;;
62258;SDS011;48241;48.824;10.102;2022-10-16T15:17:57;12.40;;;1.60;;
62258;SDS011;48241;48.824;10.102;2022-10-16T15:20:32;7.88;;;1.60;;
62258;SDS011;48241;48.824;10.102;2022-10-16T15:23:03;14.80;;;1.92;;
62258;SDS011;48241;48.824;10.102;2022-10-16T15:25:35;8.73;;;1.48;;
62258;SDS011;48241;48.824;10.102;2022-10-16T15:28:04;10.13;;;1.85;;
62258;SDS011;48241;48.824;10.102;2022-10-16T15:30:30;9.77;;;1.70;;
62258;SDS011;48241;48.824;10.102;2022-10-16T15:32:56;11.43;;;1.40;;
62258;SDS011;48241;48.824;10.102;2022-10-16T15:35:22;12.18;;;1.70;;
62258;SDS011;48241;48.824;10.102;2022-10-16T15:37:47;2.85;;;1.25;;
62258;SDS011;48241;48.824;10.102;2022-10-16T15:40:13;9.70;;;1.50;;
62258;SDS011;48241;48.824;10.102;2022-10-16T15:50:24;14.32;;;2.00;;
62258;SDS011;48241;48.824;10.102;2022-10-16T15:52:49;13.00;;;1.60;;
62258;SDS011;48241;48.824;10.102;2022-10-16T15:55:16;12.25;;;1.80;;
62258;SDS011;48241;48.824;10.102;2022-10-16T15:57:43;10.93;;;1.90;;
62258;SDS011;48241;48.824;10.102;2022-10-16T16:00:14;11.05;;;1.80;;
62258;SDS011;48241;48.824;10.102;2022-10-16T16:02:42;3.97;;;1.50;;
62258;SDS011;48241;48.824;10.102;2022-10-16T16:05:09;7.35;;;1.60;;
62258;SDS011;48241;48.824;10.102;2022-10-16T16:07:36;7.30;;;1.42;;
62258;SDS011;48241;48.824;10.102;2022-10-16T16:10:04;9.45;;;1.65;;
62258;SDS011;48241;48.824;10.102;2022-10-16T16:12:32;9.77;;;1.30;;
62258;SDS011;48241;48.824;10.102;2022-10-16T16:14:58;4.43;;;1.52;;
62258;SDS011;48241;48.824;10.102;2022-10-16T16:17:24;4.63;;;1.42;;
62258;SDS011;48241;48.824;10.102;2022-10-16T16:19:50;3.28;;;1.35;;
62258;SDS011;48241;48.824;10.102;2022-10-16T16:22:16;3.05;;;1.40;;
62258;SDS011;48241;48.824;10.102;2022-10-16T16:24:42;6.95;;;1.60;;
62258;SDS011;48241;48.824;10.102;2022-10-16T16:27:09;5.63;;;1.60;;
62258;SDS011;48241;48.824;10.102;2022-10-16T16:29:35;5.53;;;1.55;;
62258;SDS011;48241;48.824;10.102;2022-10-16T16:32:00;9.38;;;1.70;;
62258;SDS011;48241;48.824;10.102;2022-10-16T16:34:27;8.32;;;1.50;;
62258;SDS011;48241;48.824;10.102;2022-10-16T16:36:53;7.72;;;1.70;;
62258;SDS011;48241;48.824;10.102;2022-10-16T16:39:20;5.88;;;1.50;;
62258;SDS011;48241;48.824;10.102;2022-10-16T16:41:46;2.33;;;1.35;;
62258;SDS011;48241;48.824;10.102;2022-10-16T16:44:12;5.35;;;1.58;;
62258;SDS011;48241;48.824;10.102;2022-10-16T16:46:39;2.50;;;1.30;;
62258;SDS011;48241;48.824;10.102;2022-10-16T16:49:05;2.60;;;1.45;;
62258;SDS011;48241;48.824;10.102;2022-10-16T16:51:31;6.72;;;1.45;;
62258;SDS011;48241;48.824;10.102;2022-10-16T16:53:58;6.00;;;1.20;;
62258;SDS011;48241;48.824;10.102;2022-10-16T16:56:24;4.53;;;1.42;;
62258;SDS011;48241;48.824;10.102;2022-10-16T16:58:51;9.35;;;1.58;;
62258;SDS011;48241;48.824;10.102;2022-10-16T17:01:19;3.00;;;1.27;;
62258;SDS011;48241;48.824;10.102;2022-10-16T17:03:46;4.70;;;1.40;;
62258;SDS011;48241;48.824;10.102;2022-10-16T17:06:14;5.95;;;1.60;;
62258;SDS011;48241;48.824;10.102;2022-10-16T17:08:40;16.85;;;1.98;;
62258;SDS011;48241;48.824;10.102;2022-10-16T17:11:10;7.15;;;1.70;;